sensor_id;sensor_type;location;lat;lon;timestamp;pressure;altitude;pressure_sealevel;temperature;humidity
37202;BME280;37799;52.390;6.136;2022-08-21T00:01:56;101660.44;;;14.22;100.00
37202;BME280;37799;52.390;6.136;2022-08-21T00:04:22;101655.28;;;14.18;100.00
37202;BME280;37799;52.390;6.136;2022-08-21T00:06:49;101660.56;;;14.17;100.00
37202;BME280;37799;52.390;6.136;2022-08-21T00:09:15;101650.13;;;14.17;100.00
37202;BME280;37799;52.390;6.136;2022-08-21T00:11:40;101658.00;;;14.15;100.00
37202;BME280;37799;52.390;6.136;2022-08-21T00:14:07;101659.78;;;14.13;100.00
37202;BME280;37799;52.390;6.136;2022-08-21T00:16:34;101652.97;;;14.09;100.00
37202;BME280;37799;52.390;6.136;2022-08-21T00:18:59;101658.97;;;14.11;100.00
37202;BME280;37799;52.390;6.136;2022-08-21T00:21:25;101658.81;;;14.17;100.00
37202;BME280;37799;52.390;6.136;2022-08-21T00:23:51;101655.28;;;14.20;100.00
37202;BME280;37799;52.390;6.136;2022-08-21T00:26:16;101654.44;;;14.20;100.00
37202;BME280;37799;52.390;6.136;2022-08-21T00:28:41;101656.94;;;14.23;100.00
37202;BME280;37799;52.390;6.136;2022-08-21T00:31:07;101656.91;;;14.24;100.00
37202;BME280;37799;52.390;6.136;2022-08-21T00:33:32;101663.09;;;14.20;100.00
37202;BME280;37799;52.390;6.136;2022-08-21T00:35:58;101657.19;;;14.13;100.00
37202;BME280;37799;52.390;6.136;2022-08-21T00:38:23;101660.00;;;14.06;100.00
37202;BME280;37799;52.390;6.136;2022-08-21T00:40:52;101657.53;;;14.01;100.00
37202;BME280;37799;52.390;6.136;2022-08-21T00:43:22;101648.94;;;13.98;100.00
37202;BME280;37799;52.390;6.136;2022-08-21T00:45:49;101648.94;;;13.98;100.00
37202;BME280;37799;52.390;6.136;2022-08-21T00:48:14;101659.41;;;13.96;100.00
37202;BME280;37799;52.390;6.136;2022-08-21T00:50:46;101661.13;;;13.97;100.00
37202;BME280;37799;52.390;6.136;2022-08-21T00:53:13;101660.25;;;13.97;100.00
37202;BME280;37799;52.390;6.136;2022-08-21T00:55:40;101650.69;;;13.97;100.00
37202;BME280;37799;52.390;6.136;2022-08-21T00:58:08;101654.34;;;13.90;100.00
37202;BME280;37799;52.390;6.136;2022-08-21T01:00:37;101648.41;;;13.85;100.00
37202;BME280;37799;52.390;6.136;2022-08-21T01:03:08;101646.72;;;13.84;100.00
37202;BME280;37799;52.390;6.136;2022-08-21T01:05:35;101646.00;;;13.77;100.00
37202;BME280;37799;52.390;6.136;2022-08-21T01:08:01;101640.03;;;13.74;100.00
37202;BME280;37799;52.390;6.136;2022-08-21T01:10:26;101640.03;;;13.74;100.00
37202;BME280;37799;52.390;6.136;2022-08-21T01:12:52;101639.22;;;13.72;100.00
37202;BME280;37799;52.390;6.136;2022-08-21T01:15:23;101638.41;;;13.70;100.00
37202;BME280;37799;52.390;6.136;2022-08-21T01:17:50;101642.88;;;13.65;100.00
37202;BME280;37799;52.390;6.136;2022-08-21T01:20:16;101644.56;;;13.67;100.00
37202;BME280;37799;52.390;6.136;2022-08-21T01:22:42;101650.69;;;13.65;100.00
37202;BME280;37799;52.390;6.136;2022-08-21T01:25:09;101652.38;;;13.66;100.00
37202;BME280;37799;52.390;6.136;2022-08-21T01:27:34;101647.25;;;13.63;100.00
37202;BME280;37799;52.390;6.136;2022-08-21T01:30:09;101647.50;;;13.53;100.00
37202;BME280;37799;52.390;6.136;2022-08-21T01:32:35;101652.78;;;13.50;100.00
37202;BME280;37799;52.390;6.136;2022-08-21T01:35:00;101650.25;;;13.47;100.00
37202;BME280;37799;52.390;6.136;2022-08-21T01:37:25;101643.31;;;13.48;100.00
37202;BME280;37799;52.390;6.136;2022-08-21T01:39:51;101646.81;;;13.47;100.00
37202;BME280;37799;52.390;6.136;2022-08-21T01:42:16;101641.41;;;13.54;100.00
37202;BME280;37799;52.390;6.136;2022-08-21T01:44:42;101637.94;;;13.54;100.00
37202;BME280;37799;52.390;6.136;2022-08-21T01:47:09;101640.66;;;13.49;100.00
37202;BME280;37799;52.390;6.136;2022-08-21T01:49:36;101643.34;;;13.46;100.00
37202;BME280;37799;52.390;6.136;2022-08-21T01:52:03;101643.47;;;13.42;100.00
37202;BME280;37799;52.390;6.136;2022-08-21T01:54:29;101640.88;;;13.42;100.00
37202;BME280;37799;52.390;6.136;2022-08-21T01:56:55;101638.38;;;13.37;100.00
37202;BME280;37799;52.390;6.136;2022-08-21T01:59:22;101630.56;;;13.37;100.00
37202;BME280;37799;52.390;6.136;2022-08-21T02:01:48;101631.31;;;13.41;100.00
37202;BME280;37799;52.390;6.136;2022-08-21T02:04:14;101629.59;;;13.41;100.00
37202;BME280;37799;52.390;6.136;2022-08-21T02:06:39;101634.78;;;13.43;100.00
37202;BME280;37799;52.390;6.136;2022-08-21T02:09:07;101632.13;;;13.44;100.00
37202;BME280;37799;52.390;6.136;2022-08-21T02:11:33;101625.22;;;13.43;100.00
37202;BME280;37799;52.390;6.136;2022-08-21T02:13:59;101623.47;;;13.44;100.00
37202;BME280;37799;52.390;6.136;2022-08-21T02:16:24;101624.41;;;13.40;100.00
37202;BME280;37799;52.390;6.136;2022-08-21T02:18:50;101616.66;;;13.38;100.00
37202;BME280;37799;52.390;6.136;2022-08-21T02:21:15;101615.00;;;13.36;100.00
37202;BME280;37799;52.390;6.136;2022-08-21T02:23:41;101623.81;;;13.30;100.00
37202;BME280;37799;52.390;6.136;2022-08-21T02:26:08;101623.88;;;13.27;100.00
37202;BME280;37799;52.390;6.136;2022-08-21T02:28:34;101622.16;;;13.26;100.00
37202;BME280;37799;52.390;6.136;2022-08-21T02:31:01;101625.69;;;13.23;100.00
37202;BME280;37799;52.390;6.136;2022-08-21T02:33:27;101623.19;;;13.20;100.00
37202;BME280;37799;52.390;6.136;2022-08-21T02:35:53;101625.78;;;13.20;100.00
37202;BME280;37799;52.390;6.136;2022-08-21T02:38:22;101616.31;;;13.16;100.00
37202;BME280;37799;52.390;6.136;2022-08-21T02:40:49;101621.53;;;13.16;100.00
37202;BME280;37799;52.390;6.136;2022-08-21T02:43:16;101624.13;;;13.15;100.00
37202;BME280;37799;52.390;6.136;2022-08-21T02:45:42;101612.91;;;13.13;100.00
37202;BME280;37799;52.390;6.136;2022-08-21T02:48:10;101615.59;;;13.10;100.00
37202;BME280;37799;52.390;6.136;2022-08-21T02:50:44;101607.88;;;13.07;100.00
37202;BME280;37799;52.390;6.136;2022-08-21T02:53:12;101608.69;;;13.09;100.00
37202;BME280;37799;52.390;6.136;2022-08-21T02:55:41;101602.59;;;13.10;100.00
37202;BME280;37799;52.390;6.136;2022-08-21T02:58:07;101600.00;;;13.10;100.00
37202;BME280;37799;52.390;6.136;2022-08-21T03:00:34;101603.41;;;13.12;100.00
37202;BME280;37799;52.390;6.136;2022-08-21T03:03:00;101607.78;;;13.10;100.00
37202;BME280;37799;52.390;6.136;2022-08-21T03:05:28;101600.88;;;13.09;100.00
37202;BME280;37799;52.390;6.136;2022-08-21T03:07:54;101589.63;;;13.08;100.00
37202;BME280;37799;52.390;6.136;2022-08-21T03:10:20;101604.38;;;13.08;100.00
37202;BME280;37799;52.390;6.136;2022-08-21T03:12:46;101603.56;;;13.06;100.00
37202;BME280;37799;52.390;6.136;2022-08-21T03:15:18;101604.41;;;13.06;100.00
37202;BME280;37799;52.390;6.136;2022-08-21T03:17:45;101604.38;;;13.08;100.00
37202;BME280;37799;52.390;6.136;2022-08-21T03:20:12;101607.84;;;13.08;100.00
37202;BME280;37799;52.390;6.136;2022-08-21T03:22:39;101607.06;;;13.05;100.00
37202;BME280;37799;52.390;6.136;2022-08-21T03:25:05;101601.06;;;13.01;100.00
37202;BME280;37799;52.390;6.136;2022-08-21T03:27:30;101602.84;;;12.99;100.00
37202;BME280;37799;52.390;6.136;2022-08-21T03:29:56;101596.66;;;13.05;100.00
37202;BME280;37799;52.390;6.136;2022-08-21T03:32:22;101592.44;;;12.99;100.00
37202;BME280;37799;52.390;6.136;2022-08-21T03:34:48;101595.00;;;13.00;100.00
37202;BME280;37799;52.390;6.136;2022-08-21T03:37:13;101593.31;;;12.99;100.00
37202;BME280;37799;52.390;6.136;2022-08-21T03:39:39;101597.84;;;12.91;100.00
37202;BME280;37799;52.390;6.136;2022-08-21T03:42:07;101590.19;;;12.85;100.00
37202;BME280;37799;52.390;6.136;2022-08-21T03:44:32;101589.25;;;12.88;100.00
37202;BME280;37799;52.390;6.136;2022-08-21T03:46:57;101592.72;;;12.87;100.00
37202;BME280;37799;52.390;6.136;2022-08-21T03:49:24;101593.63;;;12.86;100.00
37202;BME280;37799;52.390;6.136;2022-08-21T03:51:49;101596.25;;;12.84;100.00
37202;BME280;37799;52.390;6.136;2022-08-21T03:54:14;101601.41;;;12.86;100.00
37202;BME280;37799;52.390;6.136;2022-08-21T03:56:40;101591.06;;;12.84;100.00
37202;BME280;37799;52.390;6.136;2022-08-21T03:59:06;101590.25;;;12.82;100.00
37202;BME280;37799;52.390;6.136;2022-08-21T04:01:32;101588.59;;;12.80;100.00
37202;BME280;37799;52.390;6.136;2022-08-21T04:03:57;101593.66;;;12.84;100.00
37202;BME280;37799;52.390;6.136;2022-08-21T04:06:23;101595.44;;;12.82;100.00
37202;BME280;37799;52.390;6.136;2022-08-21T04:08:48;101594.63;;;12.80;100.00
37202;BME280;37799;52.390;6.136;2022-08-21T04:11:13;101595.44;;;12.82;100.00
37202;BME280;37799;52.390;6.136;2022-08-21T04:13:39;101601.47;;;12.84;100.00
37202;BME280;37799;52.390;6.136;2022-08-21T04:16:06;101592.84;;;12.82;100.00
37202;BME280;37799;52.390;6.136;2022-08-21T04:18:31;101599.69;;;12.86;100.00
37202;BME280;37799;52.390;6.136;2022-08-21T04:20:57;101598.09;;;12.81;100.00
37202;BME280;37799;52.390;6.136;2022-08-21T04:23:25;101596.34;;;12.81;100.00
37202;BME280;37799;52.390;6.136;2022-08-21T04:25:52;101594.59;;;12.82;100.00
37202;BME280;37799;52.390;6.136;2022-08-21T04:28:19;101592.03;;;12.80;100.00
37202;BME280;37799;52.390;6.136;2022-08-21T04:30:44;101586.75;;;12.83;100.00
37202;BME280;37799;52.390;6.136;2022-08-21T04:33:10;101585.91;;;12.83;100.00
37202;BME280;37799;52.390;6.136;2022-08-21T04:35:35;101588.63;;;12.78;100.00
37202;BME280;37799;52.390;6.136;2022-08-21T04:38:00;101594.72;;;12.77;100.00
37202;BME280;37799;52.390;6.136;2022-08-21T04:40:27;101593.00;;;12.76;100.00
37202;BME280;37799;52.390;6.136;2022-08-21T04:43:00;101587.78;;;12.78;100.00
37202;BME280;37799;52.390;6.136;2022-08-21T04:45:35;101586.91;;;12.77;100.00
37202;BME280;37799;52.390;6.136;2022-08-21T04:48:03;101586.00;;;12.80;100.00
37202;BME280;37799;52.390;6.136;2022-08-21T04:50:37;101591.19;;;12.80;100.00
37202;BME280;37799;52.390;6.136;2022-08-21T04:53:11;101590.34;;;12.79;100.00
37202;BME280;37799;52.390;6.136;2022-08-21T04:55:38;101593.88;;;12.75;100.00
37202;BME280;37799;52.390;6.136;2022-08-21T04:58:06;101598.13;;;12.79;100.00
37202;BME280;37799;52.390;6.136;2022-08-21T05:00:32;101599.75;;;12.83;100.00
37202;BME280;37799;52.390;6.136;2022-08-21T05:02:59;101604.06;;;12.84;100.00
37202;BME280;37799;52.390;6.136;2022-08-21T05:05:27;101609.91;;;12.94;100.00
37202;BME280;37799;52.390;6.136;2022-08-21T05:07:54;101608.16;;;12.94;100.00
37202;BME280;37799;52.390;6.136;2022-08-21T05:10:21;101611.63;;;12.95;100.00
37202;BME280;37799;52.390;6.136;2022-08-21T05:12:47;101620.28;;;12.95;100.00
37202;BME280;37799;52.390;6.136;2022-08-21T05:15:13;101614.94;;;13.00;100.00
37202;BME280;37799;52.390;6.136;2022-08-21T05:17:42;101619.16;;;13.06;100.00
37202;BME280;37799;52.390;6.136;2022-08-21T05:20:12;101613.00;;;13.10;100.00
37202;BME280;37799;52.390;6.136;2022-08-21T05:22:38;101612.88;;;13.14;100.00
37202;BME280;37799;52.390;6.136;2022-08-21T05:25:05;101608.47;;;13.18;100.00
37202;BME280;37799;52.390;6.136;2022-08-21T05:27:30;101617.03;;;13.23;100.00
37202;BME280;37799;52.390;6.136;2022-08-21T05:29:56;101623.81;;;13.30;100.00
37202;BME280;37799;52.390;6.136;2022-08-21T05:32:22;101617.59;;;13.36;100.00
37202;BME280;37799;52.390;6.136;2022-08-21T05:34:48;101620.06;;;13.40;100.00
37202;BME280;37799;52.390;6.136;2022-08-21T05:37:13;101619.94;;;13.46;100.00
37202;BME280;37799;52.390;6.136;2022-08-21T05:39:39;101623.25;;;13.51;100.00
37202;BME280;37799;52.390;6.136;2022-08-21T05:42:04;101621.41;;;13.56;100.00
37202;BME280;37799;52.390;6.136;2022-08-21T05:44:30;101620.50;;;13.57;100.00
37202;BME280;37799;52.390;6.136;2022-08-21T05:47:02;101611.53;;;13.69;100.00
37202;BME280;37799;52.390;6.136;2022-08-21T05:49:28;101602.59;;;13.78;100.00
37202;BME280;37799;52.390;6.136;2022-08-21T05:51:53;101603.34;;;13.83;100.00
37202;BME280;37799;52.390;6.136;2022-08-21T05:54:18;101611.72;;;13.94;100.00
37202;BME280;37799;52.390;6.136;2022-08-21T05:56:43;101613.25;;;14.01;100.00
37202;BME280;37799;52.390;6.136;2022-08-21T05:59:09;101609.31;;;14.17;100.00
37202;BME280;37799;52.390;6.136;2022-08-21T06:01:35;101598.50;;;14.31;100.00
37202;BME280;37799;52.390;6.136;2022-08-21T06:04:01;101606.91;;;14.41;100.00
37202;BME280;37799;52.390;6.136;2022-08-21T06:06:26;101609.31;;;14.49;100.00
37202;BME280;37799;52.390;6.136;2022-08-21T06:08:51;101597.63;;;14.62;100.00
37202;BME280;37799;52.390;6.136;2022-08-21T06:11:17;101600.81;;;14.71;100.00
37202;BME280;37799;52.390;6.136;2022-08-21T06:13:43;101601.25;;;14.84;100.00
37202;BME280;37799;52.390;6.136;2022-08-21T06:16:14;101616.13;;;15.09;100.00
37202;BME280;37799;52.390;6.136;2022-08-21T06:18:40;101614.06;;;15.45;100.00
37202;BME280;37799;52.390;6.136;2022-08-21T06:21:06;101613.56;;;15.85;100.00
37202;BME280;37799;52.390;6.136;2022-08-21T06:23:32;101608.16;;;16.38;100.00
37202;BME280;37799;52.390;6.136;2022-08-21T06:25:58;101618.50;;;16.86;100.00
37202;BME280;37799;52.390;6.136;2022-08-21T06:28:23;101621.69;;;16.94;100.00
37202;BME280;37799;52.390;6.136;2022-08-21T06:30:49;101616.44;;;16.94;100.00
37202;BME280;37799;52.390;6.136;2022-08-21T06:33:14;101621.28;;;17.03;100.00
37202;BME280;37799;52.390;6.136;2022-08-21T06:35:39;101614.41;;;17.23;100.00
37202;BME280;37799;52.390;6.136;2022-08-21T06:38:05;101625.06;;;17.60;100.00
37202;BME280;37799;52.390;6.136;2022-08-21T06:40:30;101620.50;;;18.05;100.00
37202;BME280;37799;52.390;6.136;2022-08-21T06:43:04;101619.47;;;18.46;100.00
37202;BME280;37799;52.390;6.136;2022-08-21T06:45:29;101615.38;;;18.78;100.00
37202;BME280;37799;52.390;6.136;2022-08-21T06:47:55;101628.88;;;19.07;100.00
37202;BME280;37799;52.390;6.136;2022-08-21T06:50:20;101627.34;;;19.20;100.00
37202;BME280;37799;52.390;6.136;2022-08-21T06:52:45;101617.47;;;19.42;100.00
37202;BME280;37799;52.390;6.136;2022-08-21T06:55:10;101622.69;;;19.25;100.00
37202;BME280;37799;52.390;6.136;2022-08-21T06:57:36;101615.31;;;19.33;100.00
37202;BME280;37799;52.390;6.136;2022-08-21T07:00:04;101615.97;;;19.56;100.00
37202;BME280;37799;52.390;6.136;2022-08-21T07:02:29;101609.25;;;20.16;100.00
37202;BME280;37799;52.390;6.136;2022-08-21T07:04:55;101608.06;;;20.71;100.00
37202;BME280;37799;52.390;6.136;2022-08-21T07:07:20;101616.97;;;21.30;100.00
37202;BME280;37799;52.390;6.136;2022-08-21T07:09:46;101624.41;;;21.82;100.00
37202;BME280;37799;52.390;6.136;2022-08-21T07:12:12;101624.63;;;22.35;100.00
37202;BME280;37799;52.390;6.136;2022-08-21T07:14:37;101624.16;;;23.11;100.00
37202;BME280;37799;52.390;6.136;2022-08-21T07:17:03;101621.09;;;23.70;100.00
37202;BME280;37799;52.390;6.136;2022-08-21T07:19:28;101617.78;;;24.17;100.00
37202;BME280;37799;52.390;6.136;2022-08-21T07:21:58;101622.59;;;24.61;98.46
37202;BME280;37799;52.390;6.136;2022-08-21T07:24:25;101624.94;;;25.14;95.22
37202;BME280;37799;52.390;6.136;2022-08-21T07:26:50;101621.25;;;25.27;87.41
37202;BME280;37799;52.390;6.136;2022-08-21T07:29:16;101624.50;;;24.83;86.87
37202;BME280;37799;52.390;6.136;2022-08-21T07:31:42;101625.25;;;24.61;90.25
37202;BME280;37799;52.390;6.136;2022-08-21T07:34:07;101626.22;;;25.08;89.55
37202;BME280;37799;52.390;6.136;2022-08-21T07:36:33;101627.47;;;25.15;87.59
37202;BME280;37799;52.390;6.136;2022-08-21T07:38:59;101612.97;;;25.08;87.88
37202;BME280;37799;52.390;6.136;2022-08-21T07:41:27;101615.94;;;25.39;87.24
37202;BME280;37799;52.390;6.136;2022-08-21T07:43:55;101623.63;;;25.66;84.70
37202;BME280;37799;52.390;6.136;2022-08-21T07:46:20;101623.09;;;25.96;82.42
37202;BME280;37799;52.390;6.136;2022-08-21T07:48:46;101630.16;;;26.29;81.46
37202;BME280;37799;52.390;6.136;2022-08-21T07:51:13;101618.72;;;26.39;80.39
37202;BME280;37799;52.390;6.136;2022-08-21T07:53:39;101608.22;;;26.81;80.73
37202;BME280;37799;52.390;6.136;2022-08-21T07:56:05;101614.75;;;27.20;76.81
37202;BME280;37799;52.390;6.136;2022-08-21T07:58:32;101622.75;;;27.41;75.70
37202;BME280;37799;52.390;6.136;2022-08-21T08:00:57;101613.91;;;27.20;75.03
37202;BME280;37799;52.390;6.136;2022-08-21T08:03:23;101606.91;;;27.19;75.00
37202;BME280;37799;52.390;6.136;2022-08-21T08:05:49;101613.16;;;26.97;71.25
37202;BME280;37799;52.390;6.136;2022-08-21T08:08:14;101614.50;;;25.81;72.63
37202;BME280;37799;52.390;6.136;2022-08-21T08:10:40;101609.84;;;25.49;73.70
37202;BME280;37799;52.390;6.136;2022-08-21T08:13:05;101617.41;;;26.00;73.59
37202;BME280;37799;52.390;6.136;2022-08-21T08:15:30;101610.78;;;25.83;75.56
37202;BME280;37799;52.390;6.136;2022-08-21T08:17:56;101616.22;;;26.04;71.61
37202;BME280;37799;52.390;6.136;2022-08-21T08:20:23;101608.50;;;26.78;69.69
37202;BME280;37799;52.390;6.136;2022-08-21T08:22:50;101621.22;;;26.95;66.12
37202;BME280;37799;52.390;6.136;2022-08-21T08:25:16;101610.66;;;26.84;67.61
37202;BME280;37799;52.390;6.136;2022-08-21T08:27:42;101614.03;;;27.18;63.81
37202;BME280;37799;52.390;6.136;2022-08-21T08:30:09;101604.91;;;27.53;61.18
37202;BME280;37799;52.390;6.136;2022-08-21T08:32:36;101614.88;;;27.60;61.24
37202;BME280;37799;52.390;6.136;2022-08-21T08:35:01;101602.84;;;27.36;60.21
37202;BME280;37799;52.390;6.136;2022-08-21T08:37:27;101604.13;;;27.41;60.62
37202;BME280;37799;52.390;6.136;2022-08-21T08:39:52;101594.69;;;27.79;59.80
37202;BME280;37799;52.390;6.136;2022-08-21T08:42:28;101600.03;;;27.37;61.03
37202;BME280;37799;52.390;6.136;2022-08-21T08:45:11;101603.25;;;27.82;58.71
37202;BME280;37799;52.390;6.136;2022-08-21T08:47:40;101602.06;;;27.96;57.10
37202;BME280;37799;52.390;6.136;2022-08-21T08:50:17;101604.94;;;28.14;55.64
37202;BME280;37799;52.390;6.136;2022-08-21T08:52:59;101590.22;;;28.19;53.90
37202;BME280;37799;52.390;6.136;2022-08-21T08:55:38;101601.59;;;27.19;56.82
37202;BME280;37799;52.390;6.136;2022-08-21T08:58:04;101598.19;;;27.58;57.18
37202;BME280;37799;52.390;6.136;2022-08-21T09:00:30;101599.28;;;28.07;57.40
37202;BME280;37799;52.390;6.136;2022-08-21T09:02:59;101604.91;;;28.04;54.70
37202;BME280;37799;52.390;6.136;2022-08-21T09:05:40;101599.44;;;28.06;54.72
37202;BME280;37799;52.390;6.136;2022-08-21T09:11:04;101605.88;;;28.03;56.39
37202;BME280;37799;52.390;6.136;2022-08-21T09:22:17;101604.53;;;29.26;53.98
37202;BME280;37799;52.390;6.136;2022-08-21T09:27:53;101600.44;;;28.64;55.43
37202;BME280;37799;52.390;6.136;2022-08-21T09:30:25;101595.97;;;29.03;58.87
37202;BME280;37799;52.390;6.136;2022-08-21T09:32:51;101599.66;;;28.93;57.20
37202;BME280;37799;52.390;6.136;2022-08-21T09:35:18;101604.94;;;28.73;60.24
37202;BME280;37799;52.390;6.136;2022-08-21T09:37:55;101591.88;;;28.61;58.53
37202;BME280;37799;52.390;6.136;2022-08-21T09:40:32;101592.44;;;28.45;60.71
37202;BME280;37799;52.390;6.136;2022-08-21T09:43:18;101591.84;;;28.51;61.42
37202;BME280;37799;52.390;6.136;2022-08-21T09:45:44;101600.88;;;28.69;58.93
37202;BME280;37799;52.390;6.136;2022-08-21T09:48:22;101598.50;;;28.16;58.88
37202;BME280;37799;52.390;6.136;2022-08-21T09:50:49;101595.88;;;27.96;60.11
37202;BME280;37799;52.390;6.136;2022-08-21T09:53:18;101590.03;;;27.50;59.18
37202;BME280;37799;52.390;6.136;2022-08-21T09:56:04;101597.72;;;27.65;60.60
37202;BME280;37799;52.390;6.136;2022-08-21T09:58:50;101592.00;;;28.49;57.86
37202;BME280;37799;52.390;6.136;2022-08-21T10:01:21;101593.03;;;29.16;55.46
37202;BME280;37799;52.390;6.136;2022-08-21T10:03:48;101596.59;;;29.73;53.92
37202;BME280;37799;52.390;6.136;2022-08-21T10:06:26;101593.22;;;29.71;53.30
37202;BME280;37799;52.390;6.136;2022-08-21T10:09:05;101597.25;;;30.22;51.02
37202;BME280;37799;52.390;6.136;2022-08-21T10:11:31;101596.44;;;30.39;51.99
37202;BME280;37799;52.390;6.136;2022-08-21T10:14:18;101587.38;;;29.58;51.24
37202;BME280;37799;52.390;6.136;2022-08-21T10:17:07;101590.50;;;30.18;51.20
37202;BME280;37799;52.390;6.136;2022-08-21T10:19:40;101590.84;;;30.33;50.27
37202;BME280;37799;52.390;6.136;2022-08-21T10:22:15;101585.41;;;30.70;47.03
37202;BME280;37799;52.390;6.136;2022-08-21T10:27:39;101588.88;;;29.70;50.65
37202;BME280;37799;52.390;6.136;2022-08-21T10:30:26;101590.16;;;29.93;49.84
37202;BME280;37799;52.390;6.136;2022-08-21T10:33:16;101567.78;;;28.82;48.56
37202;BME280;37799;52.390;6.136;2022-08-21T10:35:53;101572.53;;;29.17;51.09
37202;BME280;37799;52.390;6.136;2022-08-21T10:41:21;101575.53;;;30.35;47.20
37202;BME280;37799;52.390;6.136;2022-08-21T10:44:12;101574.28;;;30.47;46.64
37202;BME280;37799;52.390;6.136;2022-08-21T10:46:58;101581.00;;;30.06;46.03
37202;BME280;37799;52.390;6.136;2022-08-21T10:52:29;101579.75;;;29.73;48.30
37202;BME280;37799;52.390;6.136;2022-08-21T10:55:09;101577.59;;;28.91;45.92
37202;BME280;37799;52.390;6.136;2022-08-21T11:00:23;101572.22;;;29.29;47.35
37202;BME280;37799;52.390;6.136;2022-08-21T11:02:50;101580.50;;;29.46;47.54
37202;BME280;37799;52.390;6.136;2022-08-21T11:05:34;101581.75;;;29.98;48.75
37202;BME280;37799;52.390;6.136;2022-08-21T11:08:12;101564.84;;;30.07;45.99
37202;BME280;37799;52.390;6.136;2022-08-21T11:10:44;101576.81;;;29.93;45.23
37202;BME280;37799;52.390;6.136;2022-08-21T11:13:18;101575.25;;;30.28;46.11
37202;BME280;37799;52.390;6.136;2022-08-21T11:15:58;101578.50;;;29.94;46.04
37202;BME280;37799;52.390;6.136;2022-08-21T11:18:34;101583.72;;;29.40;46.45
37202;BME280;37799;52.390;6.136;2022-08-21T11:21:29;101577.59;;;29.00;50.44
37202;BME280;37799;52.390;6.136;2022-08-21T11:24:02;101568.16;;;29.25;50.68
37202;BME280;37799;52.390;6.136;2022-08-21T11:29:05;101569.03;;;28.77;49.29
37202;BME280;37799;52.390;6.136;2022-08-21T11:37:07;101564.25;;;28.52;48.26
37202;BME280;37799;52.390;6.136;2022-08-21T11:42:23;101562.34;;;28.93;49.52
37202;BME280;37799;52.390;6.136;2022-08-21T11:50:43;101566.03;;;29.58;47.50
37202;BME280;37799;52.390;6.136;2022-08-21T11:55:46;101554.63;;;29.56;46.86
37202;BME280;37799;52.390;6.136;2022-08-21T11:58:30;101563.88;;;29.99;46.46
37202;BME280;37799;52.390;6.136;2022-08-21T12:01:03;101560.59;;;29.77;45.01
37202;BME280;37799;52.390;6.136;2022-08-21T12:03:40;101558.53;;;30.08;45.22
37202;BME280;37799;52.390;6.136;2022-08-21T12:06:10;101556.13;;;30.05;43.37
37202;BME280;37799;52.390;6.136;2022-08-21T12:08:37;101556.94;;;30.33;45.35
37202;BME280;37799;52.390;6.136;2022-08-21T12:16:34;101567.72;;;31.30;42.60
37202;BME280;37799;52.390;6.136;2022-08-21T12:19:08;101565.97;;;31.21;42.55
37202;BME280;37799;52.390;6.136;2022-08-21T12:21:48;101573.78;;;30.97;44.31
37202;BME280;37799;52.390;6.136;2022-08-21T12:26:53;101564.09;;;30.15;44.66
37202;BME280;37799;52.390;6.136;2022-08-21T12:29:36;101562.03;;;29.72;45.42
37202;BME280;37799;52.390;6.136;2022-08-21T12:32:04;101562.09;;;29.89;46.51
37202;BME280;37799;52.390;6.136;2022-08-21T12:34:53;101553.34;;;29.70;47.08
37202;BME280;37799;52.390;6.136;2022-08-21T12:37:34;101561.59;;;30.04;45.87
37202;BME280;37799;52.390;6.136;2022-08-21T12:40:03;101562.56;;;29.75;43.50
37202;BME280;37799;52.390;6.136;2022-08-21T12:42:39;101564.63;;;29.54;46.13
37202;BME280;37799;52.390;6.136;2022-08-21T12:45:37;101556.81;;;28.85;44.88
37202;BME280;37799;52.390;6.136;2022-08-21T12:48:17;101563.81;;;28.47;47.28
37202;BME280;37799;52.390;6.136;2022-08-21T12:50:48;101558.56;;;27.86;48.35
37202;BME280;37799;52.390;6.136;2022-08-21T12:53:31;101559.91;;;28.01;50.75
37202;BME280;37799;52.390;6.136;2022-08-21T12:56:02;101558.41;;;27.78;50.36
37202;BME280;37799;52.390;6.136;2022-08-21T12:58:29;101557.16;;;27.82;49.84
37202;BME280;37799;52.390;6.136;2022-08-21T13:01:04;101558.28;;;27.79;51.48
37202;BME280;37799;52.390;6.136;2022-08-21T13:03:31;101559.00;;;27.60;50.33
37202;BME280;37799;52.390;6.136;2022-08-21T13:05:59;101555.03;;;27.24;52.26
37202;BME280;37799;52.390;6.136;2022-08-21T13:08:26;101556.25;;;27.20;53.03
37202;BME280;37799;52.390;6.136;2022-08-21T13:10:58;101554.63;;;27.29;54.87
37202;BME280;37799;52.390;6.136;2022-08-21T13:13:26;101558.41;;;27.78;53.41
37202;BME280;37799;52.390;6.136;2022-08-21T13:15:58;101551.19;;;27.99;51.45
37202;BME280;37799;52.390;6.136;2022-08-21T13:18:29;101552.50;;;28.05;50.51
37202;BME280;37799;52.390;6.136;2022-08-21T13:21:12;101557.56;;;28.17;50.93
37202;BME280;37799;52.390;6.136;2022-08-21T13:23:37;101560.63;;;28.03;52.32
37202;BME280;37799;52.390;6.136;2022-08-21T13:26:17;101556.50;;;28.30;50.90
37202;BME280;37799;52.390;6.136;2022-08-21T13:28:43;101551.47;;;28.27;50.22
37202;BME280;37799;52.390;6.136;2022-08-21T13:31:15;101552.94;;;28.19;51.15
37202;BME280;37799;52.390;6.136;2022-08-21T13:33:41;101557.81;;;28.05;51.80
37202;BME280;37799;52.390;6.136;2022-08-21T13:36:14;101561.00;;;27.99;52.67
37202;BME280;37799;52.390;6.136;2022-08-21T13:38:44;101559.78;;;28.12;51.22
37202;BME280;37799;52.390;6.136;2022-08-21T13:41:20;101562.88;;;28.67;53.23
37202;BME280;37799;52.390;6.136;2022-08-21T13:43:57;101559.34;;;29.25;50.44
37202;BME280;37799;52.390;6.136;2022-08-21T13:46:24;101568.78;;;29.66;47.28
37202;BME280;37799;52.390;6.136;2022-08-21T13:48:53;101556.38;;;29.84;47.58